createdAt,value
2019-06-08T00:01:35.477Z,20.40
2019-06-08T00:04:04.015Z,20.40
2019-06-08T00:06:32.604Z,20.40
2019-06-08T00:09:01.130Z,20.40
2019-06-08T00:11:29.633Z,20.40
2019-06-08T00:13:58.088Z,20.30
2019-06-08T00:16:26.602Z,20.30
2019-06-08T00:18:55.128Z,20.30
2019-06-08T00:21:24.142Z,20.30
2019-06-08T00:23:52.960Z,20.30
2019-06-08T00:26:22.170Z,20.30
2019-06-08T00:28:50.688Z,20.30
2019-06-08T00:31:20.096Z,20.30
2019-06-08T00:33:49.034Z,20.30
2019-06-08T00:36:18.716Z,20.30
2019-06-08T00:38:47.430Z,20.30
2019-06-08T00:41:17.044Z,20.30
2019-06-08T00:43:45.668Z,20.30
2019-06-08T00:46:15.237Z,20.30
2019-06-08T00:48:43.886Z,20.30
2019-06-08T00:51:12.467Z,20.30
2019-06-08T00:53:40.971Z,20.20
2019-06-08T00:56:10.038Z,20.10
2019-06-08T00:58:38.731Z,20.10
2019-06-08T01:01:07.286Z,20.10
2019-06-08T01:03:35.999Z,20.10
2019-06-08T01:06:04.814Z,20.10
2019-06-08T01:08:33.445Z,20.10
2019-06-08T01:11:02.111Z,20.10
2019-06-08T01:13:30.647Z,20.10
2019-06-08T01:15:59.112Z,20.10
2019-06-08T01:18:27.616Z,20.10
2019-06-08T01:20:56.248Z,20.10
2019-06-08T01:23:25.607Z,20.20
2019-06-08T01:25:54.193Z,20.20
2019-06-08T01:28:23.952Z,20.30
2019-06-08T01:30:52.595Z,20.30
2019-06-08T01:33:22.512Z,20.30
2019-06-08T01:35:51.344Z,20.30
2019-06-08T01:38:21.051Z,20.30
2019-06-08T01:40:49.759Z,20.30
2019-06-08T01:43:18.256Z,20.30
2019-06-08T01:45:46.784Z,20.20
2019-06-08T01:48:20.202Z,20.20
2019-06-08T01:50:45.611Z,20.20
2019-06-08T01:53:14.142Z,20.10
2019-06-08T01:55:42.596Z,20.10
2019-06-08T01:58:11.080Z,20.00
2019-06-08T02:00:41.638Z,20.00
2019-06-08T02:03:10.183Z,19.90
2019-06-08T02:05:38.875Z,19.80
2019-06-08T02:08:07.490Z,19.80
2019-06-08T02:13:07.660Z,19.70
2019-06-08T02:15:35.387Z,19.70
2019-06-08T02:18:04.117Z,19.70
2019-06-08T02:20:33.039Z,19.60
2019-06-08T02:23:01.823Z,19.60
2019-06-08T02:25:31.258Z,19.60
2019-06-08T02:28:00.297Z,19.50
2019-06-08T02:30:32.725Z,19.50
2019-06-08T02:33:00.698Z,19.40
2019-06-08T02:35:30.700Z,19.40
2019-06-08T02:37:59.491Z,19.40
2019-06-08T02:40:30.025Z,19.40
2019-06-08T02:42:58.254Z,19.40
2019-06-08T02:45:26.886Z,19.30
2019-06-08T02:47:55.351Z,19.30
2019-06-08T02:50:53.862Z,19.30
2019-06-08T02:53:23.354Z,19.30
2019-06-08T02:55:52.133Z,19.30
2019-06-08T02:58:21.807Z,19.20
2019-06-08T03:00:52.592Z,19.20
2019-06-08T03:03:21.162Z,19.20
2019-06-08T03:05:51.136Z,19.20
2019-06-08T03:08:20.774Z,19.20
2019-06-08T03:13:27.093Z,19.20
2019-06-08T03:15:55.590Z,19.20
2019-06-08T03:18:24.042Z,19.30
2019-06-08T03:20:52.673Z,19.30
2019-06-08T03:23:21.174Z,19.30
2019-06-08T03:25:53.071Z,19.30
2019-06-08T03:28:20.012Z,19.30
2019-06-08T03:30:54.351Z,19.30
2019-06-08T03:33:18.782Z,19.30
2019-06-08T03:35:56.480Z,19.30
2019-06-08T03:38:17.577Z,19.30
2019-06-08T03:40:46.397Z,19.40
2019-06-08T03:43:15.135Z,19.40
2019-06-08T03:45:45.177Z,19.40
2019-06-08T03:48:14.172Z,19.40
2019-06-08T03:50:44.489Z,19.50
2019-06-08T03:53:13.084Z,19.50
2019-06-08T03:55:43.033Z,19.50
2019-06-08T03:58:11.986Z,19.60
2019-06-08T04:00:40.580Z,19.60
2019-06-08T04:03:09.450Z,19.60
2019-06-08T04:05:40.230Z,19.60
2019-06-08T04:08:08.255Z,19.60
2019-06-08T04:10:37.602Z,19.50
2019-06-08T04:13:06.390Z,19.60
2019-06-08T04:15:35.336Z,19.60
2019-06-08T04:18:03.859Z,19.60
2019-06-08T04:20:32.335Z,19.60
2019-06-08T04:23:01.080Z,19.60
2019-06-08T04:25:29.623Z,19.60
2019-06-08T04:27:58.170Z,19.60
2019-06-08T04:30:27.143Z,19.70
2019-06-08T04:32:55.721Z,19.70
2019-06-08T04:35:24.333Z,19.70
2019-06-08T04:37:52.840Z,19.70
2019-06-08T04:40:21.422Z,19.70
2019-06-08T04:42:51.036Z,19.70
2019-06-08T04:45:19.915Z,19.70
2019-06-08T04:47:50.164Z,19.80
2019-06-08T04:50:23.135Z,19.70
2019-06-08T04:52:49.960Z,19.90
2019-06-08T04:55:18.780Z,19.80
2019-06-08T04:57:48.720Z,19.90
2019-06-08T05:00:17.786Z,19.90
2019-06-08T05:02:48.627Z,19.90
2019-06-08T05:05:16.504Z,19.90
2019-06-08T05:07:46.033Z,19.90
2019-06-08T05:10:15.408Z,19.90
2019-06-08T05:12:45.579Z,19.90
2019-06-08T05:15:14.627Z,19.80
2019-06-08T05:17:43.338Z,19.80
2019-06-08T05:20:12.200Z,19.80
2019-06-08T05:22:41.459Z,19.80
2019-06-08T05:25:11.038Z,19.80
2019-06-08T05:27:39.486Z,19.80
2019-06-08T05:30:09.145Z,19.70
2019-06-08T05:32:39.306Z,19.80
2019-06-08T05:35:08.764Z,19.70
2019-06-08T05:37:37.302Z,19.70
2019-06-08T05:40:06.810Z,19.70
2019-06-08T05:42:35.439Z,19.70
2019-06-08T05:45:06.636Z,19.70
2019-06-08T05:47:35.320Z,19.70
2019-06-08T05:50:06.246Z,19.60
2019-06-08T05:52:34.816Z,19.70
2019-06-08T05:55:03.749Z,19.70
2019-06-08T05:57:32.292Z,19.70
2019-06-08T06:00:08.429Z,19.70
2019-06-08T06:02:31.352Z,19.80
2019-06-08T06:04:59.810Z,19.80
2019-06-08T06:07:28.366Z,19.90
2019-06-08T06:09:56.834Z,19.90
2019-06-08T06:12:25.385Z,19.90
2019-06-08T06:14:54.201Z,19.90
2019-06-08T06:17:22.802Z,20.00
2019-06-08T06:19:51.580Z,20.00
2019-06-08T06:22:20.204Z,19.90
2019-06-08T06:24:49.713Z,19.80
2019-06-08T06:29:47.863Z,19.80
2019-06-08T06:32:16.924Z,19.80
2019-06-08T06:34:45.844Z,19.70
2019-06-08T06:37:14.742Z,19.70
2019-06-08T06:39:43.936Z,19.60
2019-06-08T06:42:12.682Z,19.60
2019-06-08T06:44:42.077Z,19.60
2019-06-08T06:47:11.016Z,19.60
2019-06-08T06:49:39.526Z,19.50
2019-06-08T06:52:08.014Z,19.50
2019-06-08T06:54:36.455Z,19.50
2019-06-08T06:57:05.454Z,19.50
2019-06-08T06:59:34.044Z,19.50
2019-06-08T07:02:02.535Z,19.50
2019-06-08T07:04:31.033Z,19.60
2019-06-08T07:06:59.581Z,19.60
2019-06-08T07:09:28.527Z,19.70
2019-06-08T07:11:57.094Z,19.80
2019-06-08T07:14:25.915Z,19.80
2019-06-08T07:16:54.385Z,19.90
2019-06-08T07:19:22.979Z,19.90
2019-06-08T07:21:53.071Z,20.00
2019-06-08T07:24:21.818Z,20.00
2019-06-08T07:26:50.571Z,20.00
2019-06-08T07:29:19.142Z,20.00
2019-06-08T07:31:48.637Z,20.00
2019-06-08T07:34:18.580Z,20.10
2019-06-08T07:36:48.462Z,20.20
2019-06-08T07:39:17.302Z,20.20
2019-06-08T07:41:45.765Z,20.20
2019-06-08T07:44:14.264Z,20.30
2019-06-08T07:46:42.956Z,20.30
2019-06-08T07:49:11.489Z,20.40
2019-06-08T07:51:40.049Z,20.40
2019-06-08T07:54:08.511Z,20.40
2019-06-08T07:56:37.267Z,20.50
2019-06-08T07:59:05.862Z,20.50
2019-06-08T08:01:36.555Z,20.60
2019-06-08T08:04:04.830Z,20.60
2019-06-08T08:06:33.471Z,20.60
2019-06-08T08:09:01.967Z,20.60
2019-06-08T08:11:30.427Z,20.70
2019-06-08T08:13:59.170Z,20.80
2019-06-08T08:16:27.969Z,20.80
2019-06-08T08:18:57.609Z,20.90
2019-06-08T08:21:29.302Z,20.80
2019-06-08T08:23:59.416Z,20.90
2019-06-08T08:26:27.999Z,20.90
2019-06-08T08:29:01.340Z,20.90
2019-06-08T08:31:27.989Z,20.90
2019-06-08T08:34:03.370Z,20.90
2019-06-08T08:36:29.396Z,20.90
2019-06-08T08:39:00.519Z,21.00
2019-06-08T08:41:27.949Z,20.90
2019-06-08T08:43:58.957Z,21.00
2019-06-08T08:46:28.533Z,21.10
2019-06-08T08:49:05.904Z,21.10
2019-06-08T08:51:28.039Z,21.10
2019-06-08T08:54:03.034Z,21.10
2019-06-08T09:33:23.534Z,20.90
2019-06-08T09:35:54.417Z,20.90
2019-06-08T09:38:22.314Z,21.00
2019-06-08T09:40:50.942Z,21.00
2019-06-08T09:43:19.475Z,21.20
2019-06-08T09:45:48.378Z,21.20
2019-06-08T09:48:18.184Z,21.30
2019-06-08T09:50:48.658Z,21.40
2019-06-08T09:53:26.804Z,21.70
2019-06-08T09:55:48.277Z,21.70
2019-06-08T09:58:18.029Z,21.80
2019-06-08T10:00:48.617Z,21.90
2019-06-08T10:03:18.654Z,22.00
2019-06-08T10:05:48.411Z,22.00
2019-06-08T10:08:20.205Z,22.20
2019-06-08T10:10:48.392Z,22.20
2019-06-08T10:13:18.953Z,22.20
2019-06-08T10:15:51.191Z,22.20
2019-06-08T10:18:17.712Z,22.20
2019-06-08T10:20:48.163Z,22.30
2019-06-08T10:23:29.847Z,22.30
2019-06-08T10:25:48.224Z,22.30
2019-06-08T10:28:20.976Z,22.30
2019-06-08T10:30:48.531Z,22.30
2019-06-08T10:33:18.413Z,22.30
2019-06-08T10:35:48.063Z,22.30
2019-06-08T10:38:18.125Z,22.30
2019-06-08T10:41:13.113Z,22.30
2019-06-08T10:43:33.034Z,22.30
2019-06-08T10:46:08.371Z,22.20
2019-06-08T10:48:32.021Z,22.20
2019-06-08T10:51:03.715Z,22.30
2019-06-08T10:53:45.213Z,22.40
2019-06-08T10:56:01.710Z,22.40
2019-06-08T10:58:31.230Z,22.40
2019-06-08T11:01:02.608Z,22.50
2019-06-08T11:03:30.641Z,22.60
2019-06-08T11:06:01.215Z,22.60
2019-06-08T11:08:29.710Z,22.60
2019-06-08T11:10:59.978Z,22.70
2019-06-08T11:13:28.481Z,22.70
2019-06-08T11:15:58.688Z,22.70
2019-06-08T11:18:28.646Z,22.70
2019-06-08T11:20:59.453Z,22.70
2019-06-08T11:23:28.758Z,22.80
2019-06-08T11:25:59.527Z,22.80
2019-06-08T11:28:28.356Z,22.90
2019-06-08T11:30:57.293Z,22.90
2019-06-08T11:33:30.303Z,23.10
2019-06-08T11:35:58.171Z,23.10
2019-06-08T11:38:28.722Z,23.20
2019-06-08T11:40:57.474Z,23.20
2019-06-08T11:43:28.739Z,23.20
2019-06-08T11:45:58.398Z,23.20
2019-06-08T11:48:28.512Z,23.20
2019-06-08T11:50:58.503Z,23.20
2019-06-08T11:53:28.831Z,23.30
2019-06-08T11:55:58.639Z,23.30
2019-06-08T11:58:28.253Z,23.20
2019-06-08T12:01:03.313Z,23.20
2019-06-08T12:03:31.601Z,23.30
2019-06-08T12:06:00.196Z,23.30
2019-06-08T12:08:28.780Z,23.30
2019-06-08T12:11:01.233Z,23.30
2019-06-08T12:13:27.958Z,23.50
2019-06-08T12:15:58.905Z,23.50
2019-06-08T12:18:27.021Z,23.60
2019-06-08T12:20:55.477Z,23.60
2019-06-08T12:23:23.983Z,23.70
2019-06-08T12:25:52.441Z,23.70
2019-06-08T12:28:23.764Z,23.80
2019-06-08T12:30:52.326Z,23.90
2019-06-08T12:33:22.835Z,24.00
2019-06-08T12:35:51.157Z,24.00
2019-06-08T12:38:19.662Z,24.20
2019-06-08T12:40:48.692Z,24.20
2019-06-08T12:43:18.961Z,24.20
2019-06-08T12:45:47.640Z,24.30
2019-06-08T12:48:20.460Z,24.30
2019-06-08T12:50:47.992Z,24.30
2019-06-08T12:53:20.667Z,24.50
2019-06-08T12:55:47.640Z,24.50
2019-06-08T12:58:17.188Z,24.50
2019-06-08T13:00:48.297Z,24.60
2019-06-08T13:03:16.803Z,24.80
2019-06-08T13:05:45.394Z,24.70
2019-06-08T13:08:15.224Z,24.90
2019-06-08T13:10:44.538Z,24.90
2019-06-08T13:13:13.025Z,25.10
2019-06-08T13:15:41.625Z,25.10
2019-06-08T13:18:13.715Z,25.20
2019-06-08T13:20:43.089Z,25.20
2019-06-08T13:23:11.672Z,25.30
2019-06-08T13:25:43.804Z,25.30
2019-06-08T13:28:15.180Z,25.30
2019-06-08T13:30:41.169Z,25.30
2019-06-08T13:33:09.962Z,25.30
2019-06-08T13:35:39.563Z,25.30
2019-06-08T13:38:08.871Z,25.30
2019-06-08T13:40:40.196Z,25.30
2019-06-08T13:43:08.280Z,25.40
2019-06-08T13:45:39.438Z,25.50
2019-06-08T13:48:08.898Z,25.50
2019-06-08T13:50:37.789Z,25.70
2019-06-08T13:53:10.663Z,25.80
2019-06-08T13:55:49.722Z,25.90
2019-06-08T13:58:06.987Z,26.00
2019-06-08T14:00:38.549Z,26.10
2019-06-08T14:03:08.624Z,26.20
2019-06-08T14:05:38.946Z,26.20
2019-06-08T14:08:10.592Z,26.20
2019-06-08T14:10:40.887Z,26.30
2019-06-08T14:13:09.948Z,26.30
2019-06-08T14:15:38.407Z,26.40
2019-06-08T14:18:08.736Z,26.50
2019-06-08T14:20:38.671Z,26.50
2019-06-08T14:23:09.217Z,26.60
2019-06-08T14:25:47.932Z,26.70
2019-06-08T14:28:08.105Z,26.90
2019-06-08T14:30:37.788Z,27.00
2019-06-08T14:33:08.370Z,27.10
2019-06-08T14:35:36.677Z,27.10
2019-06-08T14:38:05.137Z,27.20
2019-06-08T14:40:33.691Z,27.40
2019-06-08T14:43:02.263Z,27.40
2019-06-08T14:45:31.188Z,27.40
2019-06-08T14:47:59.902Z,27.40
2019-06-08T14:50:30.644Z,27.40
2019-06-08T14:52:59.105Z,27.50
2019-06-08T14:55:33.897Z,27.50
2019-06-08T14:57:58.246Z,27.50
2019-06-08T15:00:27.760Z,27.60
2019-06-08T15:02:58.964Z,27.60
2019-06-08T15:05:32.160Z,27.50
2019-06-08T15:08:00.878Z,27.50
2019-06-08T15:10:31.224Z,27.50
2019-06-08T15:12:59.972Z,27.60
2019-06-08T15:15:30.761Z,27.60
2019-06-08T15:17:58.654Z,27.60
2019-06-08T15:20:30.343Z,27.70
2019-06-08T15:22:58.951Z,27.80
2019-06-08T15:25:30.016Z,27.90
2019-06-08T15:28:01.186Z,27.90
2019-06-08T15:30:29.787Z,27.90
2019-06-08T15:32:58.786Z,28.10
2019-06-08T15:35:27.557Z,28.20
2019-06-08T15:37:58.390Z,28.20
2019-06-08T15:40:26.352Z,28.30
2019-06-08T15:42:55.220Z,28.30
2019-06-08T15:45:24.253Z,28.40
2019-06-08T15:47:53.067Z,28.50
2019-06-08T15:50:22.291Z,28.80
2019-06-08T15:52:50.820Z,29.30
2019-06-08T15:55:19.800Z,30.10
2019-06-08T15:57:48.367Z,30.90
2019-06-08T16:00:18.516Z,31.90
2019-06-08T16:02:47.189Z,33.00
2019-06-08T16:05:15.888Z,34.20
2019-06-08T16:07:44.454Z,35.10
2019-06-08T16:10:13.288Z,36.10
2019-06-08T16:12:41.930Z,37.10
2019-06-08T16:15:10.914Z,38.00
2019-06-08T16:17:39.407Z,38.80
2019-06-08T16:20:08.035Z,39.50
2019-06-08T16:22:36.670Z,40.20
2019-06-08T16:25:06.694Z,40.80
2019-06-08T16:27:36.509Z,41.30
2019-06-08T16:30:09.435Z,41.50
2019-06-08T16:32:39.716Z,41.90
2019-06-08T16:35:08.436Z,42.30
2019-06-08T16:37:36.937Z,42.60
2019-06-08T16:40:08.759Z,42.90
2019-06-08T16:42:38.571Z,43.10
2019-06-08T16:45:07.823Z,43.30
2019-06-08T16:47:36.601Z,43.40
2019-06-08T16:50:20.998Z,43.50
2019-06-08T16:52:38.763Z,43.70
2019-06-08T16:55:07.586Z,43.90
2019-06-08T16:57:38.286Z,44.00
2019-06-08T17:02:39.165Z,44.10
2019-06-08T17:05:08.252Z,44.00
2019-06-08T17:07:37.713Z,44.00
2019-06-08T17:10:08.298Z,44.10
2019-06-08T17:12:37.085Z,44.10
2019-06-08T17:15:06.716Z,44.20
2019-06-08T17:17:36.542Z,44.20
2019-06-08T17:20:07.665Z,44.10
2019-06-08T17:22:36.827Z,44.10
2019-06-08T17:25:08.827Z,43.80
2019-06-08T17:27:37.321Z,43.50
2019-06-08T17:30:09.311Z,42.70
2019-06-08T17:32:38.529Z,41.80
2019-06-08T17:35:09.017Z,40.40
2019-06-08T17:37:38.391Z,39.60
2019-06-08T17:40:07.013Z,38.40
2019-06-08T17:42:35.662Z,37.30
2019-06-08T17:45:08.408Z,35.90
2019-06-08T17:47:36.899Z,35.20
2019-06-08T17:50:08.425Z,34.30
2019-06-08T17:52:37.121Z,33.50
2019-06-08T17:55:06.749Z,32.40
2019-06-08T17:57:44.691Z,32.00
2019-06-08T18:00:08.213Z,31.50
2019-06-08T18:02:39.841Z,31.00
2019-06-08T18:05:08.302Z,30.30
2019-06-08T18:07:39.076Z,30.00
2019-06-08T18:10:07.330Z,29.60
2019-06-08T18:12:39.254Z,29.20
2019-06-08T18:15:07.909Z,28.80
2019-06-08T18:17:41.612Z,28.60
2019-06-08T18:20:17.558Z,28.30
2019-06-08T18:22:46.557Z,28.10
2019-06-08T18:25:17.469Z,27.70
2019-06-08T18:28:02.651Z,27.60
2019-06-08T18:30:18.949Z,27.40
2019-06-08T18:32:48.553Z,27.20
2019-06-08T18:35:18.221Z,27.00
2019-06-08T18:37:48.674Z,26.90
2019-06-08T18:40:18.214Z,26.70
2019-06-08T18:42:48.812Z,26.60
2019-06-08T18:45:18.488Z,26.50
2019-06-08T18:47:48.492Z,26.40
2019-06-08T18:50:17.522Z,26.30
2019-06-08T18:52:47.312Z,26.20
2019-06-08T18:55:18.212Z,26.00
2019-06-08T19:00:18.235Z,25.90
2019-06-08T19:02:53.895Z,25.80
2019-06-08T19:05:20.762Z,25.70
2019-06-08T19:07:50.018Z,25.60
2019-06-08T19:10:20.608Z,25.50
2019-06-08T19:12:50.649Z,25.40
2019-06-08T19:15:22.299Z,25.30
2019-06-08T19:17:54.517Z,25.30
2019-06-08T19:20:20.957Z,25.20
2019-06-08T19:22:54.110Z,25.10
2019-06-08T19:25:19.946Z,25.00
2019-06-08T19:27:53.165Z,25.00
2019-06-08T19:30:20.334Z,24.90
2019-06-08T19:32:52.300Z,24.90
2019-06-08T19:35:19.245Z,24.80
2019-06-08T19:37:53.266Z,24.70
2019-06-08T19:40:18.206Z,24.70
2019-06-08T19:42:56.868Z,24.60
2019-06-08T19:45:18.202Z,25.50
2019-06-08T19:47:46.748Z,24.50
2019-06-08T19:50:17.269Z,24.40
2019-06-08T19:52:50.747Z,24.40
2019-06-08T19:55:18.134Z,24.40
2019-06-08T19:57:49.052Z,24.30
2019-06-08T20:00:18.030Z,24.20
2019-06-08T20:02:47.781Z,24.20
2019-06-08T20:05:17.486Z,24.10
2019-06-08T20:07:49.117Z,24.10
2019-06-08T20:10:18.175Z,24.00
2019-06-08T20:12:48.363Z,23.90
2019-06-08T20:15:18.372Z,23.80
2019-06-08T20:17:48.889Z,23.80
2019-06-08T20:20:18.362Z,23.70
2019-06-08T20:22:50.113Z,23.60
2019-06-08T20:25:17.887Z,23.50
2019-06-08T20:27:49.741Z,23.40
2019-06-08T20:30:17.882Z,23.40
2019-06-08T20:32:47.213Z,23.30
2019-06-08T20:35:17.408Z,23.20
2019-06-08T20:37:47.857Z,23.10
2019-06-08T20:40:18.037Z,23.10
2019-06-08T20:42:49.319Z,23.00
2019-06-08T20:45:17.288Z,23.00
2019-06-08T20:47:49.421Z,22.90
2019-06-08T20:50:17.603Z,22.90
2019-06-08T20:52:47.219Z,22.80
2019-06-08T20:55:17.517Z,22.70
2019-06-08T20:57:49.086Z,22.70
2019-06-08T21:00:16.811Z,22.60
2019-06-08T21:02:46.443Z,22.50
2019-06-08T21:05:18.084Z,22.40
2019-06-08T21:07:49.217Z,22.40
2019-06-08T21:10:17.477Z,22.30
2019-06-08T21:12:49.572Z,22.30
2019-06-08T21:15:17.795Z,22.20
2019-06-08T21:17:49.168Z,22.20
2019-06-08T21:20:17.697Z,22.10
2019-06-08T21:22:50.034Z,22.10
2019-06-08T21:25:17.587Z,22.00
2019-06-08T21:27:48.480Z,22.00
2019-06-08T21:30:23.921Z,22.00
2019-06-08T21:32:50.361Z,21.90
2019-06-08T21:35:18.380Z,21.90
2019-06-08T21:37:51.442Z,21.80
2019-06-08T21:40:20.077Z,21.80
2019-06-08T21:42:50.366Z,21.70
2019-06-08T21:45:19.110Z,21.60
2019-06-08T21:47:50.017Z,21.60
2019-06-08T21:50:18.598Z,21.50
2019-06-08T21:52:51.078Z,21.40
2019-06-08T21:55:18.337Z,21.40
2019-06-08T21:57:49.500Z,21.30
2019-06-08T22:00:38.898Z,21.20
2019-06-08T22:02:51.740Z,21.20
2019-06-08T22:05:20.312Z,21.10
2019-06-08T22:07:49.961Z,21.10
2019-06-08T22:10:18.709Z,21.00
2019-06-08T22:12:48.404Z,21.00
2019-06-08T22:15:18.328Z,20.80
2019-06-08T22:17:47.591Z,20.80
2019-06-08T22:20:18.459Z,20.80
2019-06-08T22:22:47.305Z,20.70
2019-06-08T22:25:17.552Z,20.60
2019-06-08T22:27:46.408Z,20.50
2019-06-08T22:30:32.420Z,20.40
2019-06-08T22:32:47.434Z,20.30
2019-06-08T22:35:16.365Z,20.10
2019-06-08T22:37:44.827Z,20.10
2019-06-08T22:40:13.620Z,19.90
2019-06-08T22:42:42.114Z,19.90
2019-06-08T22:45:11.213Z,19.80
2019-06-08T22:47:39.700Z,19.70
2019-06-08T22:50:09.001Z,19.70
2019-06-08T22:52:37.694Z,19.70
2019-06-08T22:55:10.719Z,19.70
2019-06-08T22:57:37.852Z,19.60
2019-06-08T23:00:14.449Z,19.60
2019-06-08T23:02:38.780Z,19.60
2019-06-08T23:05:09.159Z,19.60
2019-06-08T23:07:37.951Z,19.60
2019-06-08T23:10:09.209Z,19.60
2019-06-08T23:12:38.359Z,19.60
2019-06-08T23:15:08.674Z,19.60
2019-06-08T23:17:38.586Z,19.60
2019-06-08T23:20:08.893Z,19.60
2019-06-08T23:22:38.430Z,19.50
2019-06-08T23:25:09.454Z,19.50
2019-06-08T23:27:38.223Z,19.40
2019-06-08T23:30:10.303Z,19.40
2019-06-08T23:32:39.362Z,19.40
2019-06-08T23:35:09.521Z,19.30
2019-06-08T23:37:38.454Z,19.30
2019-06-08T23:40:08.400Z,19.30
2019-06-08T23:42:38.264Z,19.20
2019-06-08T23:45:10.145Z,19.10
2019-06-08T23:47:38.502Z,19.10
2019-06-08T23:50:11.270Z,19.10
2019-06-08T23:52:38.600Z,19.00
2019-06-08T23:55:11.379Z,19.00
2019-06-08T23:57:38.822Z,19.00
